Time;durP1;ratioP1;P1;durP2;ratioP2;P2;SDS_P1;SDS_P2;PMS_P1;PMS_P2;Temp;Humidity;BMP_temperature;BMP_pressure;BME280_temperature;BME280_humidity;BME280_pressure;Samples;Min_cycle;Max_cycle;Signal;HPM_P1;HPM_P2
2023/10/11 00:00:46;;;;;;;31.30;28.10;;;;;;;8.33;100.00;98224.73;110245;1279;22953;-82
2023/10/11 00:03:34;;;;;;;30.90;28.00;;;;;;;8.34;100.00;98220.92;110159;1279;22645;-82
2023/10/11 00:06:05;;;;;;;32.10;29.20;;;;;;;8.36;100.00;98221.07;110301;1279;22149;-82
2023/10/11 00:08:40;;;;;;;34.70;31.50;;;;;;;8.34;100.00;98218.17;110312;1279;22205;-82
2023/10/11 00:11:09;;;;;;;32.60;29.40;;;;;;;8.41;100.00;98219.19;110311;1279;22225;-82
2023/10/11 00:13:37;;;;;;;30.60;27.60;;;;;;;8.43;100.00;98219.55;110395;1279;22869;-82
2023/10/11 00:16:10;;;;;;;31.90;28.70;;;;;;;8.46;100.00;98223.31;110359;1279;22261;-83
2023/10/11 00:18:40;;;;;;;35.10;31.90;;;;;;;8.55;100.00;98216.86;110321;1279;22174;-82
2023/10/11 00:21:11;;;;;;;35.50;31.90;;;;;;;8.65;100.00;98210.58;110274;1279;22116;-83
2023/10/11 00:23:45;;;;;;;31.80;28.90;;;;;;;8.71;100.00;98202.20;110266;1279;22206;-82
2023/10/11 00:26:18;;;;;;;31.30;28.30;;;;;;;8.73;100.00;98192.58;110281;1279;22186;-82
2023/10/11 00:28:52;;;;;;;29.50;26.60;;;;;;;8.78;100.00;98191.95;110254;1279;22245;-82
2023/10/11 00:31:20;;;;;;;48.50;43.70;;;;;;;8.87;100.00;98186.50;110244;1279;22215;-82
2023/10/11 00:33:48;;;;;;;32.00;29.00;;;;;;;8.94;100.00;98183.23;110245;1279;22217;-82
2023/10/11 00:36:21;;;;;;;28.00;25.40;;;;;;;8.93;100.00;98184.54;110246;1279;22253;-82
2023/10/11 00:38:51;;;;;;;30.90;28.00;;;;;;;8.89;100.00;98189.35;110251;1279;22274;-82
2023/10/11 00:41:19;;;;;;;32.60;29.60;;;;;;;8.87;100.00;98177.70;110260;1279;22230;-82
2023/10/11 00:43:52;;;;;;;28.90;26.10;;;;;;;8.97;100.00;98169.92;110263;1279;22227;-82
2023/10/11 00:46:28;;;;;;;27.00;24.50;;;;;;;9.12;100.00;98169.80;110220;1279;22203;-82
2023/10/11 00:49:08;;;;;;;25.30;23.10;;;;;;;9.26;100.00;98172.27;110270;1260;22311;-82
2023/10/11 00:51:41;;;;;;;26.80;24.30;;;;;;;9.30;100.00;98170.02;110247;1279;22279;-82
2023/10/11 00:54:13;;;;;;;27.70;25.10;;;;;;;9.25;100.00;98171.73;110102;1279;22327;-82
2023/10/11 00:56:49;;;;;;;42.10;37.90;;;;;;;9.25;100.00;98172.91;110130;1279;22227;-82
2023/10/11 00:59:22;;;;;;;28.00;25.60;;;;;;;9.30;100.00;98172.33;110256;1279;22230;-82
2023/10/11 01:01:51;;;;;;;30.50;27.60;;;;;;;9.29;100.00;98169.86;110137;1279;22870;-82
2023/10/11 01:04:19;;;;;;;29.80;27.00;;;;;;;9.25;100.00;98165.71;110245;1279;22195;-83
2023/10/11 01:06:48;;;;;;;33.30;30.20;;;;;;;9.32;100.00;98161.45;110266;1279;22288;-82
2023/10/11 01:09:26;;;;;;;35.20;32.00;;;;;;;9.40;100.00;98163.90;110264;1279;22865;-82
2023/10/11 01:11:55;;;;;;;38.90;35.40;;;;;;;9.48;100.00;98158.23;110250;1279;23061;-82
2023/10/11 01:14:23;;;;;;;34.70;31.70;;;;;;;9.57;100.00;98155.54;110272;1279;22977;-82
2023/10/11 01:16:51;;;;;;;26.60;24.20;;;;;;;9.68;100.00;98159.21;110245;1279;22209;-82
2023/10/11 01:19:20;;;;;;;29.10;26.30;;;;;;;9.74;100.00;98157.73;110272;1279;22215;-82
2023/10/11 01:21:54;;;;;;;34.10;31.20;;;;;;;9.76;100.00;98158.30;110263;1279;22206;-82
2023/10/11 01:24:22;;;;;;;32.30;29.40;;;;;;;9.77;100.00;98158.55;110272;1279;22658;-83
2023/10/11 01:26:51;;;;;;;38.50;35.10;;;;;;;9.69;100.00;98153.33;110250;1279;22958;-82
2023/10/11 01:29:19;;;;;;;37.40;34.20;;;;;;;9.70;100.00;98150.35;110249;1279;22192;-82
2023/10/11 01:31:47;;;;;;;27.40;25.00;;;;;;;9.75;100.00;98151.91;110249;1279;22211;-82
2023/10/11 01:34:17;;;;;;;26.20;23.80;;;;;;;9.73;100.00;98152.52;110267;1279;22210;-82
2023/10/11 01:36:46;;;;;;;28.60;25.70;;;;;;;9.72;100.00;98155.42;110239;1279;22807;-82
2023/10/11 01:39:14;;;;;;;36.90;33.40;;;;;;;9.74;100.00;98150.73;110260;1279;22203;-82
2023/10/11 01:41:42;;;;;;;40.30;36.60;;;;;;;9.78;100.00;98151.56;110247;1279;22195;-82
2023/10/11 01:44:12;;;;;;;30.90;27.40;;;;;;;9.83;100.00;98153.21;110264;1279;22278;-83
2023/10/11 01:46:41;;;;;;;35.70;32.10;;;;;;;9.87;100.00;98149.61;110245;1273;22292;-82
2023/10/11 01:49:10;;;;;;;38.90;35.50;;;;;;;9.92;100.00;98148.10;110204;1279;23057;-82
2023/10/11 01:51:40;;;;;;;32.10;29.40;;;;;;;9.95;100.00;98153.02;110191;1272;22204;-82
2023/10/11 01:54:11;;;;;;;24.80;22.60;;;;;;;9.97;100.00;98154.66;110202;1279;22147;-83
2023/10/11 01:56:39;;;;;;;32.70;29.80;;;;;;;9.98;100.00;98153.15;110230;1279;22279;-80
2023/10/11 01:59:11;;;;;;;26.50;24.00;;;;;;;10.03;100.00;98145.05;110103;1279;22139;-82
2023/10/11 02:01:40;;;;;;;28.80;25.90;;;;;;;10.13;100.00;98147.09;110109;1273;22960;-81
2023/10/11 02:04:20;;;;;;;27.00;24.50;;;;;;;10.24;100.00;98141.77;110178;1274;22842;-81
2023/10/11 02:06:48;;;;;;;25.00;22.70;;;;;;;10.34;100.00;98142.15;110082;1266;23577;-81
2023/10/11 02:09:21;;;;;;;28.20;25.60;;;;;;;10.39;100.00;98137.43;110093;1272;22923;-81
2023/10/11 02:11:54;;;;;;;23.80;21.70;;;;;;;10.44;100.00;98138.23;110173;1273;23104;-81
2023/10/11 02:14:28;;;;;;;23.80;21.30;;;;;;;10.47;100.00;98136.67;110153;1273;22308;-81
2023/10/11 02:16:57;;;;;;;22.00;19.90;;;;;;;10.50;100.00;98137.55;110102;1273;22219;-81
2023/10/11 02:19:25;;;;;;;23.90;21.70;;;;;;;10.49;100.00;98127.86;110106;1273;22919;-82
2023/10/11 02:21:53;;;;;;;24.90;22.70;;;;;;;10.46;100.00;98125.43;110268;1274;22745;-82
2023/10/11 02:24:25;;;;;;;23.80;21.50;;;;;;;10.50;100.00;98128.02;110248;1279;22239;-81
2023/10/11 02:26:55;;;;;;;25.30;22.90;;;;;;;10.52;100.00;98135.42;110289;1272;22293;-80
2023/10/11 02:29:25;;;;;;;22.90;20.70;;;;;;;10.54;100.00;98135.23;110134;1280;22203;-81
2023/10/11 02:31:55;;;;;;;24.60;22.20;;;;;;;10.57;100.00;98132.23;110147;1280;22196;-81
2023/10/11 02:34:23;;;;;;;22.80;20.70;;;;;;;10.64;100.00;98127.58;110068;1280;22141;-81
2023/10/11 02:37:02;;;;;;;26.90;24.70;;;;;;;10.73;100.00;98126.37;110130;1280;22965;-81
2023/10/11 02:39:34;;;;;;;23.40;21.20;;;;;;;10.78;100.00;98127.99;110151;1280;22093;-81
2023/10/11 02:42:05;;;;;;;25.20;22.90;;;;;;;10.77;100.00;98127.60;110105;1280;22793;-81
2023/10/11 02:44:39;;;;;;;28.50;25.60;;;;;;;10.75;100.00;98131.02;110118;1280;22686;-81
2023/10/11 02:47:09;;;;;;;;;;;;;;;10.78;100.00;98125.27;110137;1276;22253;-81
2023/10/11 02:49:38;;;;;;;26.00;23.60;;;;;;;10.81;100.00;98121.55;110271;1278;22232;-81
2023/10/11 02:52:06;;;;;;;24.00;21.90;;;;;;;10.88;100.00;98119.60;110369;1278;22291;-82
2023/10/11 02:54:38;;;;;;;21.50;18.90;;;;;;;10.97;100.00;98112.39;110357;1278;22938;-81
2023/10/11 02:57:18;;;;;;;20.70;18.70;;;;;;;11.01;100.00;98116.63;110322;1278;22209;-82
2023/10/11 02:59:50;;;;;;;22.60;20.20;;;;;;;11.07;100.00;98115.66;110334;1278;22109;-81
2023/10/11 03:02:21;;;;;;;22.90;20.70;;;;;;;11.09;100.00;98120.93;110338;1278;22207;-81
2023/10/11 03:04:51;;;;;;;37.80;34.60;;;;;;;11.09;100.00;98121.46;110355;1278;22223;-81
2023/10/11 03:07:21;;;;;;;32.40;29.40;;;;;;;11.12;100.00;98120.44;110265;1278;22291;-82
2023/10/11 03:09:53;;;;;;;25.70;23.40;;;;;;;11.19;100.00;98119.04;110341;1278;22231;-80
2023/10/11 03:12:34;;;;;;;28.80;26.20;;;;;;;11.24;100.00;98120.34;110344;1278;22898;-80
2023/10/11 03:15:09;;;;;;;24.20;21.80;;;;;;;11.28;100.00;98116.90;110378;1278;22214;-82
2023/10/11 03:17:42;;;;;;;19.80;18.10;;;;;;;11.31;100.00;98115.61;110364;1278;22926;-81
2023/10/11 03:21:16;;;;;;;19.50;17.70;;;;;;;11.31;100.00;98114.86;110346;1278;23081;-82
2023/10/11 03:23:13;;;;;;;19.90;18.00;;;;;;;11.29;100.00;98111.86;110155;1278;22217;-81
2023/10/11 03:25:49;;;;;;;19.90;18.00;;;;;;;11.32;100.00;98109.77;110359;1278;22178;-81
2023/10/11 03:28:26;;;;;;;21.60;19.50;;;;;;;11.29;100.00;98115.01;110346;1278;22229;-81
2023/10/11 03:30:55;;;;;;;19.50;17.70;;;;;;;11.23;100.00;98109.34;110351;1278;22965;-81
2023/10/11 03:33:23;;;;;;;23.00;20.80;;;;;;;11.20;100.00;98108.39;110378;1278;22803;-82
2023/10/11 03:35:51;;;;;;;19.80;18.00;;;;;;;11.20;100.00;98108.76;110391;1278;22820;-80
2023/10/11 03:38:22;;;;;;;18.30;16.70;;;;;;;11.21;100.00;98104.63;110454;1278;22238;-82
2023/10/11 03:41:07;;;;;;;18.30;16.50;;;;;;;11.21;100.00;98103.06;110357;1278;22183;-81
2023/10/11 03:43:40;;;;;;;24.90;22.30;;;;;;;11.15;100.00;98101.56;110351;1278;22345;-82
2023/10/11 03:46:15;;;;;;;37.60;33.80;;;;;;;11.16;100.00;98104.02;110455;1278;22197;-82
2023/10/11 03:48:51;;;;;;;42.00;38.40;;;;;;;11.21;100.00;98097.77;110365;1278;22145;-81
2023/10/11 03:51:20;;;;;;;29.70;26.70;;;;;;;11.30;100.00;98094.02;110378;1278;22246;-81
2023/10/11 03:53:48;;;;;;;22.10;20.00;;;;;;;11.37;100.00;98092.54;110391;1278;22171;-80
2023/10/11 03:56:17;;;;;;;18.30;14.50;;;;;;;11.44;100.00;98089.55;110348;1278;22235;-80
2023/10/11 03:58:46;;;;;;;17.40;15.70;;;;;;;11.50;100.00;98085.97;110164;1272;22403;-80
2023/10/11 04:01:23;;;;;;;17.30;15.60;;;;;;;11.55;100.00;98083.81;110197;1279;22183;-80
2023/10/11 04:03:52;;;;;;;18.10;16.50;;;;;;;11.59;100.00;98082.01;110190;1279;23067;-81
2023/10/11 04:06:20;;;;;;;23.80;21.60;;;;;;;11.60;100.00;98081.89;110178;1272;23028;-81
2023/10/11 04:08:55;;;;;;;24.30;22.30;;;;;;;11.56;100.00;98085.84;110157;1275;22413;-81
2023/10/11 04:14:17;;;;;;;17.90;16.20;;;;;;;11.52;100.00;98082.05;110244;1278;23115;-81
2023/10/11 04:16:45;;;;;;;;;;;;;;;11.50;100.00;98079.00;110088;1274;22357;-80
2023/10/11 04:19:14;;;;;;;19.00;16.70;;;;;;;11.49;100.00;98076.27;110221;1280;22195;-81
2023/10/11 04:24:20;;;;;;;18.60;16.80;;;;;;;11.52;100.00;98070.92;110259;1271;22847;-82
2023/10/11 04:26:55;;;;;;;15.80;14.00;;;;;;;11.50;100.00;98070.48;110312;1278;22196;-82
2023/10/11 04:29:31;;;;;;;16.10;14.60;;;;;;;11.51;100.00;98071.27;110253;1279;22228;-81
2023/10/11 04:34:31;;;;;;;15.70;14.10;;;;;;;11.51;100.00;98071.59;110174;1275;22292;-81
2023/10/11 04:37:04;;;;;;;15.60;13.10;;;;;;;11.51;100.00;98073.69;110063;1280;22978;-82
2023/10/11 04:39:49;;;;;;;14.90;13.40;;;;;;;11.53;100.00;98074.41;110196;1272;22119;-81
2023/10/11 04:42:19;;;;;;;16.50;14.70;;;;;;;11.54;100.00;98072.70;110140;1280;22294;-81
2023/10/11 04:44:54;;;;;;;32.60;29.60;;;;;;;11.54;100.00;98074.17;110191;1280;22253;-81
2023/10/11 04:47:23;;;;;;;17.30;15.60;;;;;;;11.57;100.00;98068.17;110163;1280;22144;-81
2023/10/11 04:49:52;;;;;;;16.70;15.20;;;;;;;11.58;100.00;98065.30;110151;1280;22273;-81
2023/10/11 04:52:23;;;;;;;21.40;19.30;;;;;;;11.61;100.00;98064.69;110153;1272;22993;-81
2023/10/11 04:54:54;;;;;;;21.00;19.30;;;;;;;11.65;100.00;98066.83;110159;1280;22237;-81
2023/10/11 04:57:34;;;;;;;27.90;25.50;;;;;;;11.64;100.00;98063.45;110149;1280;22327;-83
2023/10/11 05:00:08;;;;;;;21.70;19.60;;;;;;;11.62;100.00;98061.44;110213;1279;22129;-80
2023/10/11 05:02:38;;;;;;;21.70;19.70;;;;;;;11.60;100.00;98060.77;110255;1279;22216;-83
2023/10/11 05:05:10;;;;;;;20.00;18.00;;;;;;;11.61;100.00;98057.58;110266;1279;23155;-82
2023/10/11 05:08:05;;;;;;;18.40;16.70;;;;;;;11.60;100.00;98058.02;110328;1278;22304;-82
2023/10/11 05:10:32;;;;;;;19.20;17.50;;;;;;;11.60;100.00;98058.94;110217;1279;22193;-81
2023/10/11 05:13:11;;;;;;;19.40;17.60;;;;;;;11.55;100.00;98060.38;110228;1279;22974;-80
2023/10/11 05:15:47;;;;;;;24.70;22.30;;;;;;;11.50;100.00;98062.54;110239;1279;22209;-81
2023/10/11 05:18:18;;;;;;;32.60;29.20;;;;;;;11.47;100.00;98067.19;110239;1279;22189;-81
2023/10/11 05:20:57;;;;;;;18.70;16.80;;;;;;;11.43;100.00;98069.59;110238;1279;22902;-81
2023/10/11 05:23:42;;;;;;;24.50;22.00;;;;;;;11.48;100.00;98066.57;110199;1279;22946;-81
2023/10/11 05:29:09;;;;;;;46.50;42.20;;;;;;;11.53;100.00;98068.36;110196;1279;22210;-81
2023/10/11 05:32:20;;;;;;;86.50;75.90;;;;;;;11.55;100.00;98063.58;110204;1279;22847;-81
2023/10/11 05:34:50;;;;;;;24.70;20.40;;;;;;;11.58;100.00;98068.70;110219;1279;22996;-81
2023/10/11 05:51:12;;;;;;;18.50;16.20;;;;;;;11.82;100.00;98074.09;110247;1279;22797;-81
2023/10/11 05:53:42;;;;;;;19.20;17.50;;;;;;;11.85;100.00;98076.42;110242;1279;22279;-81
2023/10/11 05:56:18;;;;;;;19.70;17.30;;;;;;;11.88;100.00;98076.10;110266;1279;23011;-81
2023/10/11 05:58:47;;;;;;;16.20;14.60;;;;;;;11.90;100.00;98076.48;110072;1279;239282;-81
2023/10/11 06:01:21;;;;;;;17.00;15.40;;;;;;;11.94;100.00;98076.09;110240;1279;22247;-82
2023/10/11 06:03:55;;;;;;;;;;;;;;;11.99;100.00;98074.95;110266;1268;22989;-82
2023/10/11 06:06:24;;;;;;;29.60;27.00;;;;;;;12.02;100.00;98071.42;110228;1279;22222;-81
2023/10/11 06:08:57;;;;;;;18.00;15.40;;;;;;;12.07;100.00;98073.14;110250;1279;22827;-82
2023/10/11 06:11:29;;;;;;;19.40;17.30;;;;;;;12.14;100.00;98074.08;110234;1279;22622;-82
2023/10/11 06:13:57;;;;;;;21.00;19.10;;;;;;;12.20;100.00;98071.45;110130;1279;22358;-81
2023/10/11 06:16:25;;;;;;;15.70;13.90;;;;;;;12.26;100.00;98076.07;110222;1279;22914;-81
2023/10/11 06:18:56;;;;;;;19.70;17.80;;;;;;;12.31;100.00;98076.64;110120;1279;22861;-81
2023/10/11 06:21:31;;;;;;;60.10;54.10;;;;;;;12.34;100.00;98074.18;110234;1279;22286;-82
2023/10/11 06:24:00;;;;;;;18.50;16.60;;;;;;;12.36;100.00;98077.70;110229;1279;22226;-81
2023/10/11 06:29:11;;;;;;;19.40;15.60;;;;;;;12.43;100.00;98087.34;110217;1279;22236;-81
2023/10/11 06:31:43;;;;;;;23.80;21.20;;;;;;;12.45;100.00;98089.31;110223;1279;22720;-81
2023/10/11 06:34:15;;;;;;;34.30;31.10;;;;;;;12.49;100.00;98089.76;110228;1279;22291;-81
2023/10/11 06:36:50;;;;;;;46.10;41.50;;;;;;;12.59;100.00;98089.48;110214;1279;22368;-81
2023/10/11 06:42:13;;;;;;;74.60;68.30;;;;;;;12.86;100.00;98091.25;110243;1279;22121;-82
2023/10/11 06:44:48;;;;;;;32.60;29.40;;;;;;;13.04;100.00;98093.55;110228;1279;22948;-81
2023/10/11 06:47:19;;;;;;;29.90;26.90;;;;;;;13.25;100.00;98088.96;110122;1279;22207;-82
2023/10/11 06:49:54;;;;;;;27.50;24.70;;;;;;;13.45;100.00;98091.11;110251;1279;23039;-81
2023/10/11 06:52:30;;;;;;;19.50;17.40;;;;;;;13.61;100.00;98092.98;110246;1279;22214;-81
2023/10/11 06:55:16;;;;;;;17.00;15.00;;;;;;;13.75;100.00;98096.27;110231;1279;22334;-81
2023/10/11 06:57:57;;;;;;;24.00;18.80;;;;;;;13.89;100.00;98089.39;110220;1279;22264;-81
2023/10/11 07:00:27;;;;;;;21.60;19.00;;;;;;;14.05;100.00;98086.23;110205;1279;22359;-81
2023/10/11 07:03:08;;;;;;;26.40;20.00;;;;;;;14.22;100.00;98084.02;110304;1279;22247;-82
2023/10/11 07:05:40;;;;;;;24.90;19.00;;;;;;;14.35;100.00;98086.77;110273;1279;22137;-82
2023/10/11 07:08:09;;;;;;;29.30;18.00;;;;;;;14.44;100.00;98086.10;110150;1279;22941;-82
2023/10/11 07:10:45;;;;;;;21.50;14.60;;;;;;;14.53;100.00;98086.70;110236;1279;22264;-82
2023/10/11 07:13:14;;;;;;;21.80;13.60;;;;;;;14.64;100.00;98086.31;110237;1279;22841;-82
2023/10/11 07:15:44;;;;;;;18.20;12.50;;;;;;;14.73;100.00;98087.64;110226;1279;22254;-82
2023/10/11 07:18:25;;;;;;;17.30;12.30;;;;;;;14.80;100.00;98084.41;110231;1279;22302;-82
2023/10/11 07:20:58;;;;;;;19.20;11.30;;;;;;;14.89;100.00;98088.90;110232;1279;22578;-82
2023/10/11 07:23:35;;;;;;;15.50;11.80;;;;;;;14.95;100.00;98081.80;110227;1279;22224;-83
2023/10/11 07:26:23;;;;;;;20.10;13.20;;;;;;;15.03;100.00;98082.64;110159;1279;22950;-82
2023/10/11 07:28:53;;;;;;;18.00;13.20;;;;;;;15.11;100.00;98080.29;110225;1279;22257;-82
2023/10/11 07:31:32;;;;;;;25.50;13.40;;;;;;;15.19;100.00;98081.96;110139;1279;22082;-82
2023/10/11 07:34:09;;;;;;;18.80;14.80;;;;;;;15.27;100.00;98086.44;110133;1279;22193;-82
2023/10/11 07:36:39;;;;;;;19.50;16.10;;;;;;;15.32;100.00;98084.66;110171;1279;22354;-81
2023/10/11 07:39:47;;;;;;;23.90;17.30;;;;;;;15.40;100.00;98084.29;110237;1279;22274;-81
2023/10/11 07:42:08;;;;;;;19.60;15.00;;;;;;;15.45;100.00;98082.79;110218;1279;22915;-81
2023/10/11 07:44:36;;;;;;;20.20;15.80;;;;;;;15.47;100.00;98077.19;110240;1279;22213;-81
2023/10/11 07:47:15;;;;;;;22.80;14.90;;;;;;;15.55;100.00;98074.76;110241;1279;22238;-82
2023/10/11 07:49:45;;;;;;;17.70;13.90;;;;;;;15.64;100.00;98077.09;110195;1279;22177;-80
2023/10/11 07:52:19;;;;;;;21.60;14.90;;;;;;;15.77;100.00;98078.55;110295;1279;22872;-81
2023/10/11 07:54:47;;;;;;;17.20;13.40;;;;;;;15.89;100.00;98073.98;110268;1279;22197;-81
2023/10/11 07:57:15;;;;;;;19.00;12.20;;;;;;;15.98;100.00;98079.52;110218;1279;22182;-81
2023/10/11 07:59:45;;;;;;;16.50;12.10;;;;;;;16.09;100.00;98077.55;110214;1279;23316;-81
2023/10/11 08:02:41;;;;;;;21.00;11.60;;;;;;;16.24;100.00;98075.61;110236;1279;22220;-81
2023/10/11 08:05:12;;;;;;;18.20;12.80;;;;;;;16.37;100.00;98080.91;110156;1279;22202;-81
2023/10/11 08:07:40;;;;;;;16.70;11.80;;;;;;;16.44;100.00;98081.55;110218;1279;22185;-81
2023/10/11 08:12:59;;;;;;;15.50;9.50;;;;;;;16.63;100.00;98075.42;110238;1279;22821;-81
2023/10/11 08:15:27;;;;;;;15.60;10.30;;;;;;;16.76;100.00;98079.64;110233;1278;22089;-80
2023/10/11 08:17:55;;;;;;;15.20;10.60;;;;;;;16.87;100.00;98081.51;110227;1279;22219;-81
2023/10/11 08:20:28;;;;;;;15.80;9.10;;;;;;;17.00;100.00;98085.61;110225;1279;22918;-80
2023/10/11 08:22:57;;;;;;;14.10;8.70;;;;;;;17.12;100.00;98087.88;110244;1272;22121;-81
2023/10/11 08:25:30;;;;;;;15.20;8.30;;;;;;;17.26;100.00;98082.28;110263;1279;22189;-81
2023/10/11 08:28:19;;;;;;;16.90;8.20;;;;;;;17.43;100.00;98083.55;110247;1279;22230;-81
2023/10/11 08:30:47;;;;;;;15.10;8.50;;;;;;;17.62;100.00;98084.00;110254;1279;22220;-82
2023/10/11 08:33:15;;;;;;;12.70;8.10;;;;;;;17.75;100.00;98080.98;110234;1279;22214;-81
2023/10/11 08:35:46;;;;;;;14.00;8.20;;;;;;;17.85;99.81;98084.67;110212;1279;23035;-81
2023/10/11 08:38:18;;;;;;;14.50;8.10;;;;;;;17.95;99.99;98085.08;110232;1279;22256;-81
2023/10/11 08:40:50;;;;;;;15.90;8.90;;;;;;;18.06;99.33;98088.93;110227;1275;22236;-82
2023/10/11 08:43:18;;;;;;;13.90;7.80;;;;;;;18.15;97.93;98084.58;110236;1279;22951;-82
2023/10/11 08:45:59;;;;;;;14.90;8.20;;;;;;;18.22;97.00;98087.61;110152;1279;22911;-82
2023/10/11 08:48:27;;;;;;;12.40;7.70;;;;;;;18.28;96.02;98085.91;110222;1279;23022;-81
2023/10/11 08:50:56;;;;;;;12.20;6.60;;;;;;;18.30;94.36;98083.95;110247;1279;22198;-81
2023/10/11 08:53:24;;;;;;;11.10;7.90;;;;;;;18.36;94.78;98088.70;110239;1279;22232;-81
2023/10/11 08:55:59;;;;;;;13.40;7.60;;;;;;;18.46;94.61;98088.22;110246;1279;22216;-81
2023/10/11 08:58:28;;;;;;;15.30;8.20;;;;;;;18.55;94.10;98078.96;110171;1278;22904;-81
2023/10/11 09:00:58;;;;;;;14.00;7.60;;;;;;;18.67;95.65;98078.77;110246;1279;22308;-81
2023/10/11 09:03:32;;;;;;;10.30;7.20;;;;;;;18.82;94.55;98077.25;110216;1279;22215;-81
2023/10/11 09:06:01;;;;;;;17.90;8.10;;;;;;;18.90;91.52;98082.05;110241;1267;22253;-81
2023/10/11 09:08:35;;;;;;;12.90;7.80;;;;;;;18.97;92.61;98079.13;110199;1279;22651;-81
2023/10/11 09:11:11;;;;;;;13.40;7.10;;;;;;;19.10;91.16;98081.27;110222;1279;22224;-80
2023/10/11 09:13:41;;;;;;;12.40;6.40;;;;;;;19.19;89.25;98081.10;110228;1279;23020;-80
2023/10/11 09:16:34;;;;;;;12.70;6.60;;;;;;;19.24;87.43;98089.35;110139;1279;22945;-80
2023/10/11 09:19:10;;;;;;;16.60;7.30;;;;;;;19.28;85.95;98084.92;110157;1279;22221;-81
2023/10/11 09:21:38;;;;;;;14.80;7.60;;;;;;;19.35;87.28;98079.95;110217;1279;22867;-80
2023/10/11 09:24:26;;;;;;;13.60;6.40;;;;;;;19.48;86.72;98084.42;110283;1279;22709;-80
2023/10/11 09:27:12;;;;;;;13.40;6.70;;;;;;;19.62;85.35;98078.05;110193;1279;22155;-81
2023/10/11 09:29:42;;;;;;;10.80;7.00;;;;;;;19.71;83.67;98079.07;110160;1279;22110;-81
2023/10/11 09:32:13;;;;;;;11.80;6.80;;;;;;;19.83;83.10;98081.52;110237;1279;22249;-81
2023/10/11 09:34:41;;;;;;;14.10;8.20;;;;;;;19.92;81.33;98082.31;110236;1279;22196;-81
2023/10/11 09:37:11;;;;;;;13.80;6.40;;;;;;;19.95;79.30;98084.02;110227;1279;22980;-81
2023/10/11 09:39:41;;;;;;;15.40;6.90;;;;;;;19.95;79.03;98086.42;110201;1279;22172;-81
2023/10/11 09:42:12;;;;;;;15.60;7.00;;;;;;;19.98;79.88;98081.56;110096;1279;22279;-82
2023/10/11 09:44:46;;;;;;;13.70;7.70;;;;;;;20.05;79.62;98081.01;110074;1279;22274;-80
2023/10/11 09:47:18;;;;;;;11.50;7.00;;;;;;;20.13;78.23;98082.59;110237;1279;23143;-81
2023/10/11 09:49:52;;;;;;;11.70;7.30;;;;;;;20.23;80.36;98081.48;110245;1279;22201;-82
2023/10/11 09:52:23;;;;;;;13.60;7.80;;;;;;;20.34;78.29;98082.91;110200;1279;22198;-80
2023/10/11 09:54:52;;;;;;;15.60;8.70;;;;;;;20.37;76.79;98088.36;110234;1278;22340;-80
2023/10/11 09:57:50;;;;;;;12.90;7.10;;;;;;;20.40;77.60;98080.91;110249;1279;22118;-81
2023/10/11 10:00:43;;;;;;;21.20;8.40;;;;;;;20.42;77.43;98082.44;110228;1279;22213;-81
2023/10/11 10:03:13;;;;;;;13.80;6.90;;;;;;;20.46;77.78;98082.92;110236;1279;22191;-81
2023/10/11 10:06:04;;;;;;;16.50;7.00;;;;;;;20.46;75.91;98079.62;110245;1279;22273;-81
2023/10/11 10:08:32;;;;;;;15.40;7.60;;;;;;;20.39;76.86;98075.13;110260;1279;22263;-81
2023/10/11 10:11:02;;;;;;;14.90;7.90;;;;;;;20.37;77.26;98071.62;110231;1279;22881;-81
2023/10/11 10:14:00;;;;;;;12.90;7.20;;;;;;;20.39;78.62;98071.21;110249;1279;22375;-80
2023/10/11 10:17:05;;;;;;;18.20;9.20;;;;;;;20.41;76.55;98070.70;110245;1279;22200;-81
2023/10/11 10:19:39;;;;;;;16.80;7.50;;;;;;;20.40;76.97;98068.09;110217;1279;23001;-81
2023/10/11 10:22:15;;;;;;;14.00;7.60;;;;;;;20.41;76.72;98064.73;110212;1279;22182;-81
2023/10/11 10:24:45;;;;;;;15.30;6.50;;;;;;;20.41;76.61;98059.76;110200;1279;22224;-82
2023/10/11 10:27:25;;;;;;;12.90;7.80;;;;;;;20.45;75.94;98058.64;110193;1279;22344;-80
2023/10/11 10:29:59;;;;;;;15.30;6.90;;;;;;;20.55;74.39;98060.45;110220;1279;22209;-80
2023/10/11 10:32:28;;;;;;;10.70;6.40;;;;;;;20.62;73.08;98059.04;110115;1279;23008;-80
2023/10/11 10:35:19;;;;;;;21.50;6.70;;;;;;;20.70;73.53;98056.52;110241;1279;22199;-81
2023/10/11 10:37:47;;;;;;;11.50;7.40;;;;;;;20.84;72.71;98062.43;110205;1279;22422;-80
2023/10/11 10:40:25;;;;;;;12.10;6.60;;;;;;;20.93;70.14;98060.23;110207;1279;23008;-81
2023/10/11 10:43:06;;;;;;;11.10;6.30;;;;;;;20.97;70.00;98051.77;110158;1279;23002;-81
2023/10/11 10:45:35;;;;;;;12.50;6.50;;;;;;;21.04;69.30;98054.25;110220;1279;22191;-79
2023/10/11 10:48:23;;;;;;;17.60;7.70;;;;;;;21.08;68.50;98049.95;110223;1275;22228;-80
2023/10/11 10:51:05;;;;;;;15.80;6.60;;;;;;;21.16;68.58;98051.98;110217;1279;22193;-80
2023/10/11 10:53:37;;;;;;;14.20;7.70;;;;;;;21.23;69.30;98047.38;110237;1279;22186;-80
2023/10/11 10:56:19;;;;;;;13.30;7.40;;;;;;;21.39;68.41;98044.92;110230;1279;22138;-80
2023/10/11 10:58:47;;;;;;;13.80;6.70;;;;;;;21.46;68.27;98046.31;110211;1279;22097;-80
2023/10/11 11:01:26;;;;;;;11.50;7.00;;;;;;;21.55;67.77;98041.45;110214;1279;22206;-81
2023/10/11 11:03:58;;;;;;;15.10;7.20;;;;;;;21.68;68.18;98043.29;110226;1279;22194;-80
2023/10/11 11:06:39;;;;;;;13.50;7.10;;;;;;;21.80;66.93;98042.91;110215;1279;22851;-80
2023/10/11 11:09:15;;;;;;;12.90;6.50;;;;;;;21.88;67.30;98035.36;110221;1279;22210;-80
2023/10/11 11:11:44;;;;;;;10.10;6.50;;;;;;;22.00;65.54;98033.88;110225;1275;22224;-81
2023/10/11 11:14:14;;;;;;;17.70;7.30;;;;;;;22.01;64.63;98032.40;110213;1279;22364;-80
2023/10/11 11:16:44;;;;;;;16.60;7.30;;;;;;;21.95;64.61;98030.75;110237;1279;22210;-80
2023/10/11 11:19:17;;;;;;;14.80;6.90;;;;;;;21.93;65.68;98032.61;110216;1279;22428;-80
2023/10/11 11:21:46;;;;;;;13.00;6.50;;;;;;;21.98;64.52;98030.88;110182;1279;22313;-81
2023/10/11 11:24:16;;;;;;;12.30;6.40;;;;;;;21.96;64.40;98033.67;110234;1279;22209;-81
2023/10/11 11:26:45;;;;;;;14.60;7.10;;;;;;;21.90;64.03;98030.37;110208;1279;22206;-82
2023/10/11 11:29:32;;;;;;;12.20;6.70;;;;;;;21.85;65.03;98024.02;110269;1279;22326;-82
2023/10/11 11:32:14;;;;;;;16.40;7.60;;;;;;;21.80;65.02;98025.14;110225;1279;22195;-81
2023/10/11 11:35:31;;;;;;;14.80;6.40;;;;;;;21.76;64.76;98027.27;110236;1279;22111;-81
2023/10/11 11:38:05;;;;;;;13.20;6.30;;;;;;;21.64;63.13;98028.73;109792;1286;22245;-81
2023/10/11 11:40:47;;;;;;;18.00;6.80;;;;;;;21.51;64.15;98027.27;110210;1279;22096;-81
2023/10/11 11:43:17;;;;;;;14.30;7.60;;;;;;;21.46;64.29;98029.23;110246;1279;22815;-80
2023/10/11 11:45:56;;;;;;;16.50;7.20;;;;;;;21.42;64.99;98027.94;110334;1279;22292;-80
2023/10/11 11:48:26;;;;;;;12.90;6.80;;;;;;;21.45;65.35;98023.66;110259;1279;22191;-80
2023/10/11 11:50:56;;;;;;;11.60;6.80;;;;;;;21.50;65.93;98019.35;110231;1279;22759;-82
2023/10/11 11:53:25;;;;;;;14.30;7.60;;;;;;;21.61;66.51;98015.20;110223;1279;22984;-81
2023/10/11 11:55:53;;;;;;;17.70;7.30;;;;;;;21.80;66.54;98015.65;110228;1279;22219;-81
2023/10/11 11:58:21;;;;;;;16.00;6.50;;;;;;;22.00;65.89;98017.64;110226;1279;22978;-81
2023/10/11 12:03:36;;;;;;;12.60;6.70;;;;;;;22.26;64.45;98011.73;110240;1279;22283;-81
2023/10/11 12:06:21;;;;;;;12.90;6.90;;;;;;;22.31;63.09;98012.20;110221;1279;22915;-81
2023/10/11 12:08:57;;;;;;;16.20;6.80;;;;;;;22.42;63.32;98014.77;110244;1279;23013;-79
2023/10/11 12:11:28;;;;;;;16.90;6.60;;;;;;;22.59;63.49;98014.48;110229;1279;22218;-80
2023/10/11 12:13:58;;;;;;;14.70;7.90;;;;;;;22.81;64.13;98016.05;110231;1279;22266;-81